Time;durP1;ratioP1;P1;durP2;ratioP2;P2;SDS_P1;SDS_P2;PMS_P1;PMS_P2;Temp;Humidity;BMP_temperature;BMP_pressure;BME280_temperature;BME280_humidity;BME280_pressure;Samples;Min_cycle;Max_cycle;Signal;HPM_P1;HPM_P2
2022/07/08 00:00:36;;;;;;;12.30;7.90;;;;;;;;;;746431;185;920124;-74
2022/07/08 00:03:02;;;;;;;9.27;7.47;;;;;;;;;;746435;185;919341;-74
2022/07/08 00:05:31;;;;;;;7.22;6.50;;;;;;;;;;750604;185;920405;-75
2022/07/08 00:07:57;;;;;;;16.23;6.90;;;;;;;;;;751973;185;918582;-74
2022/07/08 00:10:24;;;;;;;8.70;7.85;;;;;;;;;;748428;185;919033;-74
2022/07/08 00:12:50;;;;;;;11.33;7.90;;;;;;;;;;747230;185;918767;-74
2022/07/08 00:15:16;;;;;;;9.23;7.87;;;;;;;;;;754260;185;921892;-74
2022/07/08 00:17:42;;;;;;;11.40;7.50;;;;;;;;;;748683;185;919010;-74
2022/07/08 00:20:09;;;;;;;11.37;7.47;;;;;;;;;;748827;185;918065;-74
2022/07/08 00:22:34;;;;;;;7.50;6.60;;;;;;;;;;750203;185;926890;-74
2022/07/08 00:25:01;;;;;;;8.03;7.10;;;;;;;;;;744148;185;918593;-74
2022/07/08 00:27:27;;;;;;;8.87;7.63;;;;;;;;;;743160;185;918716;-74
2022/07/08 00:29:53;;;;;;;6.83;6.13;;;;;;;;;;746783;185;918317;-71
2022/07/08 00:32:19;;;;;;;12.90;7.80;;;;;;;;;;749136;183;919197;-74
2022/07/08 00:34:45;;;;;;;10.40;8.30;;;;;;;;;;749755;185;919373;-74
2022/07/08 00:37:11;;;;;;;13.63;8.07;;;;;;;;;;748002;185;919440;-74
2022/07/08 00:39:37;;;;;;;15.30;7.70;;;;;;;;;;749399;185;919230;-73
2022/07/08 00:42:03;;;;;;;9.73;7.37;;;;;;;;;;743182;185;918978;-74
2022/07/08 00:44:29;;;;;;;12.27;7.10;;;;;;;;;;744590;186;1020684;-73
2022/07/08 00:46:55;;;;;;;8.83;6.60;;;;;;;;;;749947;185;923956;-73
2022/07/08 00:49:21;;;;;;;10.97;6.60;;;;;;;;;;749384;185;940374;-73
2022/07/08 00:51:46;;;;;;;7.60;6.80;;;;;;;;;;744244;185;922047;-73
2022/07/08 00:54:13;;;;;;;9.00;7.97;;;;;;;;;;751234;185;919363;-73
2022/07/08 00:56:39;;;;;;;8.70;7.27;;;;;;;;;;742725;189;919198;-73
2022/07/08 00:59:05;;;;;;;9.10;8.07;;;;;;;;;;748948;185;919796;-74
2022/07/08 01:01:31;;;;;;;10.53;6.90;;;;;;;;;;744507;185;919297;-73
2022/07/08 01:03:57;;;;;;;7.90;6.33;;;;;;;;;;751407;185;918453;-73
2022/07/08 01:06:22;;;;;;;7.13;6.37;;;;;;;;;;745433;186;919451;-73
2022/07/08 01:08:50;;;;;;;9.47;6.20;;;;;;;;;;744018;185;1017147;-73
2022/07/08 01:11:15;;;;;;;11.05;6.45;;;;;;;;;;753904;185;918820;-73
2022/07/08 01:13:41;;;;;;;10.03;6.77;;;;;;;;;;746978;185;920339;-72
2022/07/08 01:16:07;;;;;;;11.70;8.10;;;;;;;;;;746457;185;920929;-73
2022/07/08 01:18:34;;;;;;;9.43;6.70;;;;;;;;;;751955;184;1019804;-73
2022/07/08 01:21:00;;;;;;;7.43;6.67;;;;;;;;;;742335;189;920244;-74
2022/07/08 01:23:26;;;;;;;12.33;6.40;;;;;;;;;;747530;185;918751;-73
2022/07/08 01:25:51;;;;;;;8.73;6.60;;;;;;;;;;743026;185;944376;-73
2022/07/08 01:28:17;;;;;;;7.70;6.80;;;;;;;;;;752494;185;917581;-73
2022/07/08 01:30:43;;;;;;;8.23;7.13;;;;;;;;;;736109;186;919003;-74
2022/07/08 01:33:09;;;;;;;7.60;6.80;;;;;;;;;;736810;186;918330;-73
2022/07/08 01:35:35;;;;;;;11.10;7.60;;;;;;;;;;746239;186;918982;-71
2022/07/08 01:38:01;;;;;;;8.27;7.07;;;;;;;;;;739932;186;918778;-73
2022/07/08 01:40:27;;;;;;;11.00;7.73;;;;;;;;;;745316;185;917117;-73
2022/07/08 01:42:53;;;;;;;7.70;6.90;;;;;;;;;;749973;185;918668;-73
2022/07/08 01:45:19;;;;;;;11.90;7.90;;;;;;;;;;742596;185;918512;-73
2022/07/08 01:47:44;;;;;;;9.00;7.80;;;;;;;;;;743797;185;919368;-73
2022/07/08 01:50:10;;;;;;;12.50;8.37;;;;;;;;;;743095;185;919288;-72
2022/07/08 01:52:36;;;;;;;9.33;8.30;;;;;;;;;;749545;185;918494;-72
2022/07/08 01:55:02;;;;;;;8.33;7.50;;;;;;;;;;738232;186;918631;-72
2022/07/08 01:57:28;;;;;;;9.63;8.00;;;;;;;;;;737957;186;918805;-75
2022/07/08 01:59:54;;;;;;;8.80;7.50;;;;;;;;;;744879;186;918905;-72
2022/07/08 02:02:20;;;;;;;19.73;7.40;;;;;;;;;;740213;186;916518;-73
2022/07/08 02:04:46;;;;;;;9.20;7.23;;;;;;;;;;741666;186;918341;-72
2022/07/08 02:07:12;;;;;;;9.83;7.47;;;;;;;;;;748723;185;919321;-72
2022/07/08 02:09:38;;;;;;;19.00;7.80;;;;;;;;;;744483;185;920184;-72
2022/07/08 02:14:36;;;;;;;12.97;7.27;;;;;;;;;;746717;185;918902;-72
2022/07/08 02:17:03;;;;;;;10.30;7.87;;;;;;;;;;750744;185;918419;-72
2022/07/08 02:19:28;;;;;;;14.00;8.50;;;;;;;;;;746238;185;919148;-72
2022/07/08 02:21:54;;;;;;;13.05;7.32;;;;;;;;;;744279;185;919233;-72
2022/07/08 02:24:20;;;;;;;8.23;7.20;;;;;;;;;;753187;185;916977;-72
2022/07/08 02:26:45;;;;;;;11.13;7.30;;;;;;;;;;747944;185;917909;-72
2022/07/08 02:29:11;;;;;;;12.60;7.67;;;;;;;;;;749867;185;917047;-72
2022/07/08 02:31:37;;;;;;;11.67;10.20;;;;;;;;;;749764;185;915291;-74
2022/07/08 02:34:03;;;;;;;10.60;8.43;;;;;;;;;;732128;190;931660;-71
2022/07/08 02:36:29;;;;;;;13.07;9.00;;;;;;;;;;746222;185;919013;-72
2022/07/08 02:38:55;;;;;;;12.13;9.48;;;;;;;;;;747724;185;917261;-71
2022/07/08 02:41:21;;;;;;;10.63;9.57;;;;;;;;;;751039;185;896963;-72
2022/07/08 02:43:47;;;;;;;13.70;9.87;;;;;;;;;;745640;185;915533;-72
2022/07/08 02:46:13;;;;;;;11.70;9.20;;;;;;;;;;747334;185;915568;-71
2022/07/08 02:48:38;;;;;;;13.77;10.70;;;;;;;;;;754148;185;916471;-72
2022/07/08 02:51:04;;;;;;;10.33;9.10;;;;;;;;;;747139;185;920390;-71
2022/07/08 02:53:30;;;;;;;10.80;9.40;;;;;;;;;;744472;185;912544;-72
2022/07/08 02:55:57;;;;;;;18.45;10.88;;;;;;;;;;746460;185;919406;-70
2022/07/08 02:58:23;;;;;;;13.67;10.73;;;;;;;;;;732033;189;914224;-72
2022/07/08 03:00:48;;;;;;;11.70;10.50;;;;;;;;;;746689;185;919262;-72
2022/07/08 03:03:14;;;;;;;19.10;14.00;;;;;;;;;;748495;185;919455;-71
2022/07/08 03:05:41;;;;;;;13.43;10.73;;;;;;;;;;747807;185;1021241;-71
2022/07/08 03:08:07;;;;;;;11.50;10.40;;;;;;;;;;745494;185;919156;-71
2022/07/08 03:10:33;;;;;;;15.90;11.20;;;;;;;;;;744220;185;918282;-71
2022/07/08 03:12:59;;;;;;;12.80;10.10;;;;;;;;;;751537;185;919524;-71
2022/07/08 03:15:25;;;;;;;13.03;9.80;;;;;;;;;;748227;185;918760;-72
2022/07/08 03:17:51;;;;;;;16.80;10.10;;;;;;;;;;747016;185;918626;-72
2022/07/08 03:20:17;;;;;;;18.80;9.82;;;;;;;;;;746685;185;1002886;-70
2022/07/08 03:22:43;;;;;;;13.30;10.43;;;;;;;;;;751289;183;909068;-71
2022/07/08 03:25:09;;;;;;;10.50;9.33;;;;;;;;;;749838;185;919702;-71
2022/07/08 03:27:35;;;;;;;12.10;10.80;;;;;;;;;;746648;185;910755;-71
2022/07/08 03:30:02;;;;;;;12.10;10.80;;;;;;;;;;739088;185;915022;-71
2022/07/08 03:32:28;;;;;;;12.27;10.23;;;;;;;;;;745968;185;916352;-71
2022/07/08 03:34:53;;;;;;;17.60;11.10;;;;;;;;;;746571;185;919132;-72
2022/07/08 03:37:19;;;;;;;13.83;10.73;;;;;;;;;;750988;185;918354;-71
2022/07/08 03:39:45;;;;;;;13.10;10.37;;;;;;;;;;751373;185;636636;-73
2022/07/08 03:42:11;;;;;;;11.40;9.33;;;;;;;;;;752574;184;838973;-72
2022/07/08 03:44:37;;;;;;;12.80;10.57;;;;;;;;;;755242;185;643889;-71
2022/07/08 03:47:03;;;;;;;35.77;11.90;;;;;;;;;;747610;185;634164;-71
2022/07/08 03:49:28;;;;;;;14.10;11.40;;;;;;;;;;751545;185;919811;-71
2022/07/08 03:51:54;;;;;;;13.30;11.87;;;;;;;;;;749393;185;916909;-71
2022/07/08 03:54:20;;;;;;;12.23;11.03;;;;;;;;;;750329;185;918354;-71
2022/07/08 03:56:46;;;;;;;15.00;11.70;;;;;;;;;;748470;185;915001;-71
2022/07/08 03:59:12;;;;;;;13.43;11.40;;;;;;;;;;742856;185;918402;-71
2022/07/08 04:01:38;;;;;;;15.37;11.30;;;;;;;;;;750534;185;921061;-71
2022/07/08 04:04:04;;;;;;;15.23;11.80;;;;;;;;;;749914;185;914582;-71
2022/07/08 04:06:29;;;;;;;14.27;12.07;;;;;;;;;;750797;185;912549;-71
2022/07/08 04:08:55;;;;;;;14.20;12.43;;;;;;;;;;750404;185;918190;-71
2022/07/08 04:11:21;;;;;;;17.00;10.93;;;;;;;;;;746374;185;919109;-71
2022/07/08 04:13:47;;;;;;;14.80;12.40;;;;;;;;;;748373;185;919186;-72
2022/07/08 04:16:13;;;;;;;14.10;12.60;;;;;;;;;;753993;185;639967;-71
2022/07/08 04:18:39;;;;;;;17.37;12.87;;;;;;;;;;744638;183;1030606;-72
2022/07/08 04:21:05;;;;;;;15.20;13.43;;;;;;;;;;751787;185;917564;-72
2022/07/08 04:23:30;;;;;;;15.60;13.37;;;;;;;;;;751493;185;632551;-71
2022/07/08 04:25:56;;;;;;;15.40;13.40;;;;;;;;;;754000;185;912908;-71
2022/07/08 04:28:22;;;;;;;26.90;14.43;;;;;;;;;;750081;185;918707;-73
2022/07/08 04:30:48;;;;;;;19.87;16.77;;;;;;;;;;743537;185;925304;-72
2022/07/08 04:33:14;;;;;;;17.53;14.57;;;;;;;;;;750791;185;921015;-72
2022/07/08 04:35:40;;;;;;;18.17;16.10;;;;;;;;;;744758;185;918942;-72
2022/07/08 04:38:06;;;;;;;19.30;15.10;;;;;;;;;;744876;185;917532;-72
2022/07/08 04:40:32;;;;;;;26.45;14.50;;;;;;;;;;749054;185;916525;-71
2022/07/08 04:42:58;;;;;;;19.63;15.50;;;;;;;;;;747050;185;916435;-71
2022/07/08 04:45:24;;;;;;;15.20;13.60;;;;;;;;;;744358;185;915287;-73
2022/07/08 04:47:50;;;;;;;17.70;13.90;;;;;;;;;;744096;185;914148;-74
2022/07/08 04:50:15;;;;;;;15.77;14.10;;;;;;;;;;751372;185;915006;-73
2022/07/08 04:52:41;;;;;;;23.43;13.67;;;;;;;;;;745444;184;918826;-72
2022/07/08 04:55:07;;;;;;;15.63;12.37;;;;;;;;;;744168;185;918561;-74
2022/07/08 04:57:33;;;;;;;17.77;11.77;;;;;;;;;;755717;185;917782;-73
2022/07/08 04:59:59;;;;;;;31.42;11.02;;;;;;;;;;749741;185;918706;-74
2022/07/08 05:02:25;;;;;;;11.07;9.97;;;;;;;;;;749458;185;919761;-76
2022/07/08 05:04:51;;;;;;;10.27;9.23;;;;;;;;;;750667;185;919718;-76
2022/07/08 05:07:17;;;;;;;11.80;10.38;;;;;;;;;;748013;185;921496;-73
2022/07/08 05:09:43;;;;;;;11.67;9.00;;;;;;;;;;748484;185;918963;-74
2022/07/08 05:12:09;;;;;;;14.60;10.40;;;;;;;;;;745641;185;917952;-74
2022/07/08 05:14:35;;;;;;;14.73;10.40;;;;;;;;;;750421;185;918666;-74
2022/07/08 05:17:01;;;;;;;12.73;9.87;;;;;;;;;;745403;185;917932;-74
2022/07/08 05:19:27;;;;;;;10.97;9.03;;;;;;;;;;746420;185;917444;-74
2022/07/08 05:21:53;;;;;;;11.23;10.13;;;;;;;;;;750834;185;918775;-73
2022/07/08 05:24:18;;;;;;;13.10;9.83;;;;;;;;;;748960;185;918268;-73
2022/07/08 05:26:44;;;;;;;13.60;9.70;;;;;;;;;;745908;185;918472;-74
2022/07/08 05:29:10;;;;;;;10.20;9.20;;;;;;;;;;752727;185;918316;-74
2022/07/08 05:31:36;;;;;;;12.43;10.53;;;;;;;;;;747822;185;937398;-74
2022/07/08 05:34:02;;;;;;;11.60;10.00;;;;;;;;;;750046;185;878341;-74
2022/07/08 05:36:28;;;;;;;11.93;10.00;;;;;;;;;;746560;185;919427;-73
2022/07/08 05:38:54;;;;;;;11.83;9.70;;;;;;;;;;746890;185;918642;-74
2022/07/08 05:41:19;;;;;;;12.57;9.50;;;;;;;;;;746912;185;1428870;-74
2022/07/08 05:43:45;;;;;;;15.03;9.80;;;;;;;;;;746764;185;919950;-74
2022/07/08 05:46:11;;;;;;;11.30;10.20;;;;;;;;;;749598;185;925644;-74
2022/07/08 05:48:37;;;;;;;11.50;8.63;;;;;;;;;;743958;185;918760;-74
2022/07/08 05:51:03;;;;;;;11.30;10.07;;;;;;;;;;744486;185;916523;-74
2022/07/08 05:53:29;;;;;;;9.93;8.93;;;;;;;;;;751155;185;915169;-74
2022/07/08 05:55:55;;;;;;;16.17;10.00;;;;;;;;;;746864;185;917814;-74
2022/07/08 05:58:20;;;;;;;11.13;9.13;;;;;;;;;;747039;185;921539;-74
2022/07/08 06:00:46;;;;;;;10.48;9.20;;;;;;;;;;745982;185;918542;-72
2022/07/08 06:03:12;;;;;;;10.93;8.70;;;;;;;;;;752979;182;867930;-74
2022/07/08 06:05:38;;;;;;;11.30;8.53;;;;;;;;;;753224;185;922608;-73
2022/07/08 06:08:04;;;;;;;11.43;8.80;;;;;;;;;;746478;185;926263;-74
2022/07/08 06:10:30;;;;;;;16.07;8.90;;;;;;;;;;748937;185;917954;-73
2022/07/08 06:12:57;;;;;;;12.20;8.43;;;;;;;;;;748646;185;885915;-75
2022/07/08 06:15:23;;;;;;;10.10;6.97;;;;;;;;;;746975;185;817893;-74
2022/07/08 06:17:49;;;;;;;9.20;8.30;;;;;;;;;;752071;185;919833;-74
2022/07/08 06:20:15;;;;;;;11.03;8.30;;;;;;;;;;753706;185;626809;-73
2022/07/08 06:22:41;;;;;;;8.30;7.40;;;;;;;;;;748812;185;630032;-73
2022/07/08 06:25:07;;;;;;;7.97;6.80;;;;;;;;;;750563;185;628091;-72
2022/07/08 06:27:33;;;;;;;8.30;6.40;;;;;;;;;;737052;186;632283;-74
2022/07/08 06:29:59;;;;;;;7.87;6.90;;;;;;;;;;748931;185;634385;-73
2022/07/08 06:32:25;;;;;;;11.60;7.07;;;;;;;;;;747771;185;917136;-72
2022/07/08 06:34:51;;;;;;;7.40;6.70;;;;;;;;;;750830;185;920679;-75
2022/07/08 06:37:17;;;;;;;9.23;7.10;;;;;;;;;;742690;185;918369;-73
2022/07/08 06:39:42;;;;;;;6.20;5.60;;;;;;;;;;749195;185;884141;-72
2022/07/08 06:42:08;;;;;;;9.47;6.40;;;;;;;;;;754549;185;625456;-73
2022/07/08 06:44:34;;;;;;;6.33;5.73;;;;;;;;;;744277;185;890046;-74
2022/07/08 06:47:00;;;;;;;6.87;6.17;;;;;;;;;;746239;185;917398;-74
2022/07/08 06:49:26;;;;;;;7.03;5.47;;;;;;;;;;734722;190;918492;-73
2022/07/08 06:51:52;;;;;;;6.60;5.60;;;;;;;;;;728123;190;916098;-74
2022/07/08 06:56:49;;;;;;;10.33;5.60;;;;;;;;;;747800;185;624563;-76
2022/07/08 06:59:15;;;;;;;7.47;5.20;;;;;;;;;;753620;185;636483;-73
2022/07/08 07:01:41;;;;;;;5.70;5.07;;;;;;;;;;746274;185;637505;-74
2022/07/08 07:04:07;;;;;;;6.83;5.37;;;;;;;;;;747250;185;626081;-75
2022/07/08 07:06:32;;;;;;;5.80;5.20;;;;;;;;;;752299;185;614453;-75
2022/07/08 07:08:58;;;;;;;7.93;5.67;;;;;;;;;;751588;185;636701;-73
2022/07/08 07:11:24;;;;;;;5.80;5.20;;;;;;;;;;750382;185;918931;-72
2022/07/08 07:13:50;;;;;;;9.80;6.43;;;;;;;;;;741811;186;920575;-72
2022/07/08 07:16:16;;;;;;;8.40;4.80;;;;;;;;;;745926;187;764418;-72
2022/07/08 07:18:42;;;;;;;7.00;5.60;;;;;;;;;;730359;188;917370;-72
2022/07/08 07:21:09;;;;;;;5.83;5.23;;;;;;;;;;724604;188;918872;-73
2022/07/08 07:23:34;;;;;;;5.13;4.37;;;;;;;;;;726631;189;1123245;-73
2022/07/08 07:26:00;;;;;;;4.40;3.90;;;;;;;;;;739557;188;919662;-72
2022/07/08 07:28:26;;;;;;;5.22;4.65;;;;;;;;;;736395;189;918933;-73
2022/07/08 07:30:52;;;;;;;5.63;5.03;;;;;;;;;;742695;189;919314;-72
2022/07/08 07:33:18;;;;;;;6.53;4.33;;;;;;;;;;739305;188;919084;-73
2022/07/08 07:35:43;;;;;;;5.57;4.73;;;;;;;;;;739778;189;918777;-73
2022/07/08 07:38:09;;;;;;;6.23;5.30;;;;;;;;;;737855;189;917762;-72
2022/07/08 07:40:35;;;;;;;5.97;4.93;;;;;;;;;;739623;189;917881;-73
2022/07/08 07:43:01;;;;;;;5.10;3.90;;;;;;;;;;749058;185;907674;-73
2022/07/08 07:45:27;;;;;;;7.43;4.87;;;;;;;;;;743990;185;918847;-71
2022/07/08 07:47:53;;;;;;;7.33;4.03;;;;;;;;;;748623;185;918530;-72
2022/07/08 07:50:19;;;;;;;6.13;4.13;;;;;;;;;;744531;185;918853;-72
2022/07/08 07:52:45;;;;;;;8.20;4.90;;;;;;;;;;726742;189;921553;-71
2022/07/08 07:55:11;;;;;;;4.57;3.83;;;;;;;;;;727213;191;928374;-72
2022/07/08 07:57:37;;;;;;;4.60;4.20;;;;;;;;;;726282;190;917250;-71
2022/07/08 08:00:03;;;;;;;5.87;4.20;;;;;;;;;;723576;190;919264;-71
2022/07/08 08:02:29;;;;;;;5.10;4.60;;;;;;;;;;727327;190;931389;-70
2022/07/08 08:04:55;;;;;;;4.33;3.77;;;;;;;;;;739600;189;930930;-71
2022/07/08 08:07:21;;;;;;;4.73;3.93;;;;;;;;;;744740;185;919349;-71
2022/07/08 08:09:46;;;;;;;6.20;4.47;;;;;;;;;;744892;185;919541;-69
2022/07/08 08:12:12;;;;;;;6.03;4.23;;;;;;;;;;752225;185;918080;-68
2022/07/08 08:14:38;;;;;;;6.80;3.60;;;;;;;;;;746965;185;944527;-71
2022/07/08 08:17:04;;;;;;;4.97;4.27;;;;;;;;;;747317;185;918682;-71
2022/07/08 08:19:31;;;;;;;4.60;4.00;;;;;;;;;;752198;185;920485;-73
2022/07/08 08:21:56;;;;;;;7.20;4.17;;;;;;;;;;746195;185;917827;-74
2022/07/08 08:24:22;;;;;;;4.22;3.83;;;;;;;;;;745805;185;920139;-74
2022/07/08 08:26:47;;;;;;;3.57;3.13;;;;;;;;;;749259;185;924131;-73
2022/07/08 08:29:13;;;;;;;4.80;4.20;;;;;;;;;;750033;185;917529;-74
2022/07/08 08:31:39;;;;;;;4.20;3.70;;;;;;;;;;747541;185;918286;-73
2022/07/08 08:34:05;;;;;;;3.90;3.47;;;;;;;;;;737965;188;917697;-73
2022/07/08 08:36:31;;;;;;;4.47;4.07;;;;;;;;;;753635;185;916926;-74
2022/07/08 08:38:57;;;;;;;3.63;2.90;;;;;;;;;;748290;185;934192;-73
2022/07/08 08:41:22;;;;;;;4.40;2.90;;;;;;;;;;745141;185;915714;-73
2022/07/08 08:43:48;;;;;;;4.43;3.20;;;;;;;;;;752823;185;914235;-72
2022/07/08 08:46:14;;;;;;;3.50;2.80;;;;;;;;;;745149;185;912106;-73
2022/07/08 08:48:40;;;;;;;4.30;3.03;;;;;;;;;;744491;185;916289;-73
2022/07/08 08:51:07;;;;;;;4.23;2.73;;;;;;;;;;749025;185;929589;-72
2022/07/08 08:53:40;;;;;;;4.13;3.73;;;;;;;;;;745857;185;921532;-71
2022/07/08 08:56:01;;;;;;;4.63;3.50;;;;;;;;;;747093;185;919120;-73
2022/07/08 08:58:27;;;;;;;3.70;3.10;;;;;;;;;;744708;185;911235;-71
2022/07/08 09:00:53;;;;;;;5.35;2.85;;;;;;;;;;751650;185;914905;-72
2022/07/08 09:03:19;;;;;;;4.10;3.10;;;;;;;;;;746969;185;916352;-74
2022/07/08 09:05:47;;;;;;;3.70;3.30;;;;;;;;;;748524;185;926825;-73
2022/07/08 09:08:11;;;;;;;4.33;3.67;;;;;;;;;;749519;185;915514;-73
2022/07/08 09:10:37;;;;;;;5.43;3.20;;;;;;;;;;746458;185;914953;-73
2022/07/08 09:13:04;;;;;;;3.92;3.42;;;;;;;;;;744706;185;911779;-74
2022/07/08 09:15:33;;;;;;;4.57;4.07;;;;;;;;;;749229;185;663892;-74
2022/07/08 09:18:00;;;;;;;4.33;3.77;;;;;;;;;;746583;185;914495;-75
2022/07/08 09:20:27;;;;;;;4.50;4.10;;;;;;;;;;747349;185;915249;-71
2022/07/08 09:22:54;;;;;;;4.87;3.95;;;;;;;;;;743387;185;1121368;-73
2022/07/08 09:25:22;;;;;;;3.97;3.47;;;;;;;;;;752276;185;913964;-71
2022/07/08 09:27:49;;;;;;;9.07;2.07;;;;;;;;;;747959;185;915415;-68
2022/07/08 09:30:16;;;;;;;3.80;2.47;;;;;;;;;;745337;185;918064;-69
2022/07/08 09:32:42;;;;;;;3.30;2.27;;;;;;;;;;743414;185;920505;-70
2022/07/08 09:35:12;;;;;;;2.90;1.97;;;;;;;;;;750229;185;921417;-71
2022/07/08 09:37:39;;;;;;;3.10;2.80;;;;;;;;;;746233;185;1100393;-74
2022/07/08 09:40:04;;;;;;;3.47;2.70;;;;;;;;;;747677;184;919136;-73
2022/07/08 09:42:30;;;;;;;3.53;3.20;;;;;;;;;;754050;185;629338;-75
2022/07/08 09:44:56;;;;;;;3.40;2.83;;;;;;;;;;741488;188;918393;-74
2022/07/08 09:47:21;;;;;;;4.07;2.33;;;;;;;;;;754388;185;628217;-73
2022/07/08 09:49:48;;;;;;;4.00;2.90;;;;;;;;;;747945;185;919096;-73
2022/07/08 09:52:19;;;;;;;3.43;3.00;;;;;;;;;;750453;185;638026;-76
2022/07/08 09:54:45;;;;;;;3.97;3.13;;;;;;;;;;753918;185;629627;-73
2022/07/08 09:57:11;;;;;;;3.80;3.07;;;;;;;;;;754164;185;626131;-72
2022/07/08 09:59:36;;;;;;;5.83;3.70;;;;;;;;;;751228;185;688931;-74
2022/07/08 10:02:02;;;;;;;4.57;2.90;;;;;;;;;;749808;185;626122;-73
2022/07/08 10:04:28;;;;;;;3.90;2.93;;;;;;;;;;747730;185;635039;-75
2022/07/08 10:06:54;;;;;;;3.80;3.10;;;;;;;;;;750354;185;647593;-72
2022/07/08 10:09:20;;;;;;;3.77;3.07;;;;;;;;;;750074;185;635233;-73
2022/07/08 10:11:46;;;;;;;5.50;3.27;;;;;;;;;;748681;185;913970;-73
2022/07/08 10:14:12;;;;;;;4.10;3.17;;;;;;;;;;744703;185;929038;-71
2022/07/08 10:16:38;;;;;;;3.17;2.30;;;;;;;;;;748412;185;919539;-73
2022/07/08 10:19:04;;;;;;;4.90;2.87;;;;;;;;;;743646;185;943845;-72
2022/07/08 10:21:30;;;;;;;3.30;2.50;;;;;;;;;;742795;185;918720;-73
2022/07/08 10:23:56;;;;;;;3.30;2.67;;;;;;;;;;754373;185;919053;-72
2022/07/08 10:26:23;;;;;;;3.37;2.43;;;;;;;;;;748814;185;918793;-73
2022/07/08 10:29:04;;;;;;;3.72;2.95;;;;;;;;;;746775;185;918999;-70
2022/07/08 10:31:30;;;;;;;3.23;1.93;;;;;;;;;;746300;185;1020997;-73
2022/07/08 10:33:59;;;;;;;4.53;1.95;;;;;;;;;;746099;185;918798;-72
2022/07/08 10:36:24;;;;;;;7.53;1.47;;;;;;;;;;733319;188;921149;-72
2022/07/08 10:38:51;;;;;;;2.33;1.43;;;;;;;;;;744017;185;947496;-75
2022/07/08 10:41:21;;;;;;;3.63;1.80;;;;;;;;;;745410;185;916196;-70
2022/07/08 10:43:51;;;;;;;2.37;1.60;;;;;;;;;;752895;185;613706;-74
2022/07/08 10:46:17;;;;;;;3.87;2.20;;;;;;;;;;745901;185;916333;-74
2022/07/08 10:48:45;;;;;;;2.83;2.10;;;;;;;;;;750871;185;915158;-73
2022/07/08 10:51:17;;;;;;;2.67;1.87;;;;;;;;;;752625;183;644880;-73
2022/07/08 10:53:47;;;;;;;2.50;1.57;;;;;;;;;;756301;185;620170;-73
2022/07/08 10:56:13;;;;;;;3.47;2.00;;;;;;;;;;749608;188;637215;-72
2022/07/08 10:58:45;;;;;;;3.33;2.20;;;;;;;;;;742915;188;623129;-72
2022/07/08 11:01:18;;;;;;;5.60;2.30;;;;;;;;;;752685;185;918244;-72
2022/07/08 11:03:45;;;;;;;4.33;2.10;;;;;;;;;;752352;185;645494;-72
2022/07/08 11:06:10;;;;;;;5.43;2.43;;;;;;;;;;756779;185;616939;-71
2022/07/08 11:08:37;;;;;;;5.90;2.30;;;;;;;;;;746284;185;622193;-72
2022/07/08 11:11:01;;;;;;;2.70;2.03;;;;;;;;;;750675;185;639713;-76
2022/07/08 11:13:27;;;;;;;4.60;2.73;;;;;;;;;;751685;185;917686;-77
2022/07/08 11:15:53;;;;;;;3.07;2.47;;;;;;;;;;751612;185;636188;-75
2022/07/08 11:18:21;;;;;;;3.30;2.60;;;;;;;;;;752739;185;635882;-72
2022/07/08 11:20:47;;;;;;;3.20;2.40;;;;;;;;;;755048;185;645470;-74
2022/07/08 11:23:15;;;;;;;3.10;2.33;;;;;;;;;;750300;185;646231;-74
2022/07/08 11:25:40;;;;;;;3.20;2.43;;;;;;;;;;751958;185;915930;-75
2022/07/08 11:28:12;;;;;;;3.83;3.03;;;;;;;;;;744894;185;922158;-71
2022/07/08 11:30:39;;;;;;;3.40;2.47;;;;;;;;;;752686;185;919240;-73
2022/07/08 11:33:04;;;;;;;3.37;2.13;;;;;;;;;;746176;185;915341;-75
2022/07/08 11:35:30;;;;;;;3.60;2.53;;;;;;;;;;746250;185;915666;-72
2022/07/08 11:37:56;;;;;;;3.50;2.87;;;;;;;;;;745089;185;916608;-71
2022/07/08 11:40:22;;;;;;;3.63;2.13;;;;;;;;;;746496;185;920223;-73
2022/07/08 11:42:48;;;;;;;3.30;2.50;;;;;;;;;;747932;185;918808;-71
2022/07/08 11:45:14;;;;;;;5.13;2.50;;;;;;;;;;740870;186;919242;-75
2022/07/08 11:47:41;;;;;;;3.33;2.17;;;;;;;;;;749233;185;918568;-71
2022/07/08 11:50:07;;;;;;;3.57;2.40;;;;;;;;;;743611;185;920384;-73
2022/07/08 11:52:34;;;;;;;3.60;2.60;;;;;;;;;;736869;186;1021876;-73
2022/07/08 11:54:59;;;;;;;3.33;2.70;;;;;;;;;;749126;185;911783;-71
2022/07/08 11:57:25;;;;;;;4.20;2.77;;;;;;;;;;741646;185;915546;-73
2022/07/08 11:59:51;;;;;;;3.27;2.50;;;;;;;;;;739306;186;919623;-72
2022/07/08 12:02:18;;;;;;;4.47;2.80;;;;;;;;;;728273;190;914440;-70
2022/07/08 12:04:43;;;;;;;3.30;2.13;;;;;;;;;;723096;188;918986;-71
2022/07/08 12:07:14;;;;;;;5.00;3.00;;;;;;;;;;721177;188;919414;-71
2022/07/08 12:09:40;;;;;;;4.43;3.27;;;;;;;;;;747943;185;1022133;-72
2022/07/08 12:12:06;;;;;;;5.10;3.03;;;;;;;;;;749447;185;918613;-73
2022/07/08 12:14:33;;;;;;;4.10;3.03;;;;;;;;;;749036;185;917030;-69
2022/07/08 12:16:58;;;;;;;4.30;3.00;;;;;;;;;;751602;185;917551;-73
2022/07/08 12:19:25;;;;;;;4.10;2.80;;;;;;;;;;744518;185;919321;-70
2022/07/08 12:21:51;;;;;;;3.03;2.30;;;;;;;;;;745800;185;918199;-70
2022/07/08 12:24:18;;;;;;;4.70;4.27;;;;;;;;;;749590;185;918163;-71
2022/07/08 12:26:57;;;;;;;7.60;3.40;;;;;;;;;;746982;185;919130;-70
2022/07/08 12:29:23;;;;;;;7.13;2.67;;;;;;;;;;743346;185;1322146;-71
2022/07/08 12:31:49;;;;;;;3.90;2.87;;;;;;;;;;752120;185;907014;-71
2022/07/08 12:34:15;;;;;;;3.13;2.80;;;;;;;;;;747497;185;918535;-73
2022/07/08 12:36:41;;;;;;;6.77;6.10;;;;;;;;;;748036;185;918192;-72
2022/07/08 12:39:11;;;;;;;4.27;3.60;;;;;;;;;;750260;185;922593;-71
2022/07/08 12:41:36;;;;;;;5.00;2.30;;;;;;;;;;744916;185;922170;-72
2022/07/08 12:44:09;;;;;;;3.20;2.50;;;;;;;;;;744417;185;973815;-71
2022/07/08 12:46:34;;;;;;;3.60;2.80;;;;;;;;;;742578;185;920841;-72
2022/07/08 12:49:00;;;;;;;3.57;2.90;;;;;;;;;;749923;185;922457;-72
2022/07/08 12:51:26;;;;;;;4.30;2.73;;;;;;;;;;745391;185;913736;-70
2022/07/08 12:53:52;;;;;;;3.97;2.90;;;;;;;;;;746964;185;921154;-69
2022/07/08 12:56:18;;;;;;;4.47;2.90;;;;;;;;;;750722;185;919117;-70
2022/07/08 12:58:44;;;;;;;4.23;2.40;;;;;;;;;;743532;185;918137;-69
2022/07/08 13:01:09;;;;;;;6.67;3.00;;;;;;;;;;745566;185;919199;-70
2022/07/08 13:03:36;;;;;;;3.07;2.67;;;;;;;;;;744900;185;916461;-72
2022/07/08 13:06:02;;;;;;;10.10;3.27;;;;;;;;;;748457;185;918909;-72
2022/07/08 13:08:28;;;;;;;3.20;2.70;;;;;;;;;;749830;185;918636;-67
2022/07/08 13:10:54;;;;;;;11.00;3.40;;;;;;;;;;741873;185;921015;-68
2022/07/08 13:13:20;;;;;;;11.30;6.03;;;;;;;;;;750110;183;912006;-66
2022/07/08 13:15:45;;;;;;;8.02;3.35;;;;;;;;;;739296;185;919706;-66
2022/07/08 13:18:11;;;;;;;6.67;3.60;;;;;;;;;;745375;185;919911;-67
2022/07/08 13:20:37;;;;;;;5.83;3.93;;;;;;;;;;749891;185;919638;-66
2022/07/08 13:23:03;;;;;;;8.93;3.73;;;;;;;;;;746332;185;918771;-69
2022/07/08 13:25:30;;;;;;;8.17;4.27;;;;;;;;;;741082;186;916862;-67
2022/07/08 13:27:55;;;;;;;8.23;4.07;;;;;;;;;;724724;190;944004;-67
2022/07/08 13:30:21;;;;;;;14.90;4.00;;;;;;;;;;737794;188;919621;-70
2022/07/08 13:32:47;;;;;;;8.30;3.63;;;;;;;;;;746459;185;930606;-68
2022/07/08 13:35:13;;;;;;;16.23;4.87;;;;;;;;;;743405;185;918940;-69
2022/07/08 13:37:39;;;;;;;14.95;4.07;;;;;;;;;;750453;185;920292;-70
2022/07/08 13:40:05;;;;;;;8.23;4.10;;;;;;;;;;748609;185;919192;-70
2022/07/08 13:42:31;;;;;;;8.13;5.07;;;;;;;;;;744773;185;925377;-70
2022/07/08 13:44:57;;;;;;;11.13;4.20;;;;;;;;;;751322;185;918393;-70
2022/07/08 13:47:23;;;;;;;14.23;3.90;;;;;;;;;;748703;185;919235;-72
2022/07/08 13:49:49;;;;;;;9.60;4.10;;;;;;;;;;744465;185;1018403;-71
2022/07/08 13:52:15;;;;;;;10.65;2.75;;;;;;;;;;745855;185;919065;-70
2022/07/08 13:54:41;;;;;;;18.10;3.93;;;;;;;;;;746541;185;918100;-70
2022/07/08 13:57:07;;;;;;;8.00;4.43;;;;;;;;;;750420;185;918784;-69
2022/07/08 13:59:33;;;;;;;9.00;3.80;;;;;;;;;;747371;185;915690;-69
2022/07/08 14:02:00;;;;;;;4.23;3.00;;;;;;;;;;749211;185;919105;-70
2022/07/08 14:04:25;;;;;;;6.22;3.33;;;;;;;;;;742665;185;919206;-68
2022/07/08 14:06:50;;;;;;;3.80;3.00;;;;;;;;;;742906;185;916978;-70
2022/07/08 14:09:17;;;;;;;4.12;2.78;;;;;;;;;;751344;185;918629;-69
2022/07/08 14:11:42;;;;;;;5.37;3.50;;;;;;;;;;749071;185;917746;-70
2022/07/08 14:14:08;;;;;;;4.13;3.23;;;;;;;;;;749588;185;918375;-71
2022/07/08 14:16:34;;;;;;;3.60;2.87;;;;;;;;;;750102;185;919391;-71
2022/07/08 14:19:00;;;;;;;7.93;3.20;;;;;;;;;;748859;185;918781;-70